Alix, Arkansas
Current Conditions -  °F | °C
As of 8:53 PM on Monday 20 Oct 2014 (Local Time) from KFSM Reporting Station
Broken Clouds Broken Clouds  
Wind Chill: 17°   Ceiling: 4400
Heat Index: 17°   Visibility: 10mi
Dew Point: 14°   Wind: 0mph
Humidity: 84%   Direction: NA
Pressure: 30.04"   Gusts: NA
Location:  35.43°N, 93.73°W
Report Text: KFSM 210153Z 00000KT 10SM BKN044 17/14 A3004 RMK AO2 SLP171 T01720144
Loading
Personal Weather Stations






























Interactive Weather Map
Tropical Storm Tracking
New forecast layout! Learn more

10-Day Weather Forecast

Advertisements
Track Severe Weather on mobile